Time;durP1;ratioP1;P1;durP2;ratioP2;P2;SDS_P1;SDS_P2;PMS_P1;PMS_P2;Temp;Humidity;BMP_temperature;BMP_pressure;BME280_temperature;BME280_humidity;BME280_pressure;Samples;Min_cycle;Max_cycle;Signal;HPM_P1;HPM_P2
2021/07/21 00:02:26;;;;;;;;;;;;;;;;;;10372385;28;19924;-66
2021/07/21 00:07:23;;;;;;;;;;;;;;;;;;10368789;28;19924;-67
2021/07/21 00:17:38;;;;;;;;;;;;;;;;;;10369775;28;20534;-66
2021/07/21 00:22:35;;;;;;;;;;;;;;;;;;10373762;28;20007;-66
2021/07/21 00:27:32;;;;;;;;;;;;;;;;;;10371938;28;19999;-66
2021/07/21 00:32:29;;;;;;;;;;;;;;;;;;10363976;28;20418;-67
2021/07/21 00:37:27;;;;;;;;;;;;;;;;;;10364573;28;19939;-66
2021/07/21 00:42:24;;;;;;;;;;;;;;;;;;10375224;28;19916;-67
2021/07/21 00:47:22;;;;;;;;;;;;;;;;;;10370332;28;19936;-66
2021/07/21 00:52:19;;;;;;;;;;;;;;;;;;10378745;28;20318;-67
2021/07/21 00:57:18;;;;;;;;;;;;;;;;;;10376878;28;19969;-66
2021/07/21 01:02:16;;;;;;;;;;;;;;;;;;10382357;28;20015;-66
2021/07/21 01:07:14;;;;;;;;;;;;;;;;;;10368908;28;19913;-67
2021/07/21 01:12:13;;;;;;;;;;;;;;;;;;10382329;28;19969;-66
2021/07/21 01:17:12;;;;;;;;;;;;;;;;;;10376819;28;20445;-67
2021/07/21 01:22:10;;;;;;;;;;;;;;;;;;10387027;28;20347;-66
2021/07/21 01:27:10;;;;;;;;;;;;;;;;;;10372236;28;19959;-66
2021/07/21 01:32:08;;;;;;;;;;;;;;;;;;10386460;28;20415;-68
2021/07/21 01:37:06;;;;;;;;;;;;;;;;;;10362639;28;19913;-67
2021/07/21 01:42:04;;;;;;;;;;;;;;;;;;10368226;28;19954;-66
2021/07/21 01:47:01;;;;;;;;;;;;;;;;;;10372618;28;20054;-66
2021/07/21 01:52:01;;;;;;;;;;;;;;;;;;10375231;28;19925;-66
2021/07/21 01:56:58;;;;;;;;;;;;;;;;;;10378126;28;19930;-66
2021/07/21 02:01:56;;;;;;;;;;;;;;;;;;10379890;28;19931;-66
2021/07/21 02:07:04;;;;;;;;;;;;;;;;;;10367520;28;20014;-66
2021/07/21 02:12:02;;;;;;;;;;;;;;;;;;10372216;28;19917;-66
2021/07/21 02:17:00;;;;;;;;;;;;;;;;;;10349492;28;19987;-66
2021/07/21 02:22:01;;;;;;;;;;;;;;;;;;10360600;28;19943;-65
2021/07/21 02:26:59;;;;;;;;;;;;;;;;;;10365030;28;20020;-65
2021/07/21 02:31:58;;;;;;;;;;;;;;;;;;10351937;28;20491;-65
2021/07/21 02:36:55;;;;;;;;;;;;;;;;;;10395228;28;19916;-66
2021/07/21 02:41:53;;;;;;;;;;;;;;;;;;10362099;28;19925;-65
2021/07/21 02:46:51;;;;;;;;;;;;;;;;;;10365781;28;19916;-66
2021/07/21 02:51:48;;;;;;;;;;;;;;;;;;10371317;28;20363;-66
2021/07/21 02:57:08;;;;;;;;;;;;;;;;;;10371634;28;20354;-68
2021/07/21 03:02:11;;;;;;;;;;;;;;;;;;10363792;28;19928;-67
2021/07/21 03:07:11;;;;;;;;;;;;;;;;;;10390104;28;19940;-66
2021/07/21 03:12:10;;;;;;;;;;;;;;;;;;10377827;28;19916;-67
2021/07/21 03:17:37;;;;;;;;;;;;;;;;;;10366594;28;20125;-67
2021/07/21 03:22:36;;;;;;;;;;;;;;;;;;10377129;28;19917;-67
2021/07/21 03:27:39;;;;;;;;;;;;;;;;;;10355413;28;19959;-66
2021/07/21 03:32:58;;;;;;;;;;;;;;;;;;10363077;28;19939;-67
2021/07/21 03:37:56;;;;;;;;;;;;;;;;;;10360068;28;20031;-66
2021/07/21 03:42:54;;;;;;;;;;;;;;;;;;10371863;28;19925;-66
2021/07/21 03:47:56;;;;;;;;;;;;;;;;;;10359107;28;20299;-66
2021/07/21 03:52:56;;;;;;;;;;;;;;;;;;10368313;28;19925;-67
2021/07/21 03:57:59;;;;;;;;;;;;;;;;;;10379564;28;20585;-67
2021/07/21 04:03:08;;;;;;;;;;;;;;;;;;10372847;28;19943;-67
2021/07/21 04:08:19;;;;;;;;;;;;;;;;;;10394774;28;19920;-66
2021/07/21 04:13:18;;;;;;;;;;;;;;;;;;10395657;28;19916;-66
2021/07/21 04:18:29;;;;;;;;;;;;;;;;;;10390049;28;20014;-66
2021/07/21 04:23:28;;;;;;;;;;;;;;;;;;10370865;28;19935;-68
2021/07/21 04:28:29;;;;;;;;;;;;;;;;;;10364196;28;19924;-67
2021/07/21 04:33:31;;;;;;;;;;;;;;;;;;10388365;28;19917;-67
2021/07/21 04:38:28;;;;;;;;;;;;;;;;;;10402722;28;20289;-67
2021/07/21 04:43:38;;;;;;;;;;;;;;;;;;10379210;28;19971;-67
2021/07/21 04:48:38;;;;;;;;;;;;;;;;;;10394842;28;20401;-69
2021/07/21 04:53:45;;;;;;;;;;;;;;;;;;10387336;28;20349;-67
2021/07/21 04:58:46;;;;;;;;;;;;;;;;;;10374767;28;19916;-65
2021/07/21 05:03:44;;;;;;;;;;;;;;;;;;10349295;28;19928;-66
2021/07/21 05:08:48;;;;;;;;;;;;;;;;;;10383718;28;19924;-66
2021/07/21 05:13:53;;;;;;;;;;;;;;;;;;10369030;28;21113;-66
2021/07/21 05:18:54;;;;;;;;;;;;;;;;;;10352316;28;19936;-67
2021/07/21 05:23:56;;;;;;;;;;;;;;;;;;10372670;28;19958;-67
2021/07/21 05:28:53;;;;;;;;;;;;;;;;;;10398227;27;20005;-66
2021/07/21 05:34:11;;;;;;;;;;;;;;;;;;10369220;28;19990;-67
2021/07/21 05:39:08;;;;;;;;;;;;;;;;;;10395317;28;20034;-68
2021/07/21 05:44:06;;;;;;;;;;;;;;;;;;10358056;28;19927;-68
2021/07/21 05:49:04;;;;;;;;;;;;;;;;;;10357768;28;19923;-67
2021/07/21 05:54:06;;;;;;;;;;;;;;;;;;10386605;28;19943;-67
2021/07/21 05:59:03;;;;;;;;;;;;;;;;;;10373673;28;19936;-67
2021/07/21 06:04:05;;;;;;;;;;;;;;;;;;10378333;28;20011;-68
2021/07/21 06:09:03;;;;;;;;;;;;;;;;;;10371753;28;19917;-66
2021/07/21 06:14:11;;;;;;;;;;;;;;;;;;10386746;28;19920;-66
2021/07/21 06:19:09;;;;;;;;;;;;;;;;;;10373132;28;19917;-67
2021/07/21 06:24:07;;;;;;;;;;;;;;;;;;10356039;28;20418;-65
2021/07/21 06:29:05;;;;;;;;;;;;;;;;;;10381125;28;19943;-65
2021/07/21 06:34:02;;;;;;;;;;;;;;;;;;10364370;28;20378;-67
2021/07/21 06:38:59;;;;;;;;;;;;;;;;;;10358398;28;19970;-67
2021/07/21 06:44:03;;;;;;;;;;;;;;;;;;10362674;28;20004;-67
2021/07/21 06:49:20;;;;;;;;;;;;;;;;;;10366184;28;19936;-66
2021/07/21 06:54:17;;;;;;;;;;;;;;;;;;10368664;28;19920;-67
2021/07/21 06:59:55;;;;;;;;;;;;;;;;;;10323190;28;20331;-67
2021/07/21 07:05:11;;;;;;;;;;;;;;;;;;10379591;28;20019;-67
2021/07/21 07:10:27;;;;;;;;;;;;;;;;;;10384683;28;19916;-67
2021/07/21 07:15:25;;;;;;;;;;;;;;;;;;10372847;28;20334;-67
2021/07/21 07:20:22;;;;;;;;;;;;;;;;;;10370203;28;20430;-68
2021/07/21 07:25:19;;;;;;;;;;;;;;;;;;10384540;28;19920;-67
2021/07/21 07:30:16;;;;;;;;;;;;;;;;;;10373607;28;19932;-67
2021/07/21 07:35:15;;;;;;;;;;;;;;;;;;10368372;28;20330;-66
2021/07/21 07:40:12;;;;;;;;;;;;;;;;;;10359984;28;20571;-66
2021/07/21 07:45:10;;;;;;;;;;;;;;;;;;10343712;22;20002;-61
2021/07/21 07:50:07;;;;;;;;;;;;;;;;;;10323208;28;19917;-64
2021/07/21 07:55:05;;;;;;;;;;;;;;;;;;10318745;28;20382;-64
2021/07/21 08:00:02;;;;;;;;;;;;;;;;;;10314916;28;19925;-65
2021/07/21 08:04:59;;;;;;;;;;;;;;;;;;10332517;28;19929;-65
2021/07/21 08:09:57;;;;;;;;;;;;;;;;;;10328974;28;20467;-64
2021/07/21 08:14:55;;;;;;;;;;;;;;;;;;10337560;28;19928;-65
2021/07/21 08:19:52;;;;;;;;;;;;;;;;;;10334710;28;19949;-66
2021/07/21 08:24:49;;;;;;;;;;;;;;;;;;10333666;28;19975;-64
2021/07/21 08:29:47;;;;;;;;;;;;;;;;;;10329003;28;19925;-64
2021/07/21 08:34:44;;;;;;;;;;;;;;;;;;10331575;28;19928;-64
2021/07/21 08:39:41;;;;;;;;;;;;;;;;;;10336213;28;20341;-63
2021/07/21 08:44:38;;;;;;;;;;;;;;;;;;10348038;28;20343;-64
2021/07/21 08:49:36;;;;;;;;;;;;;;;;;;10316511;28;19922;-64
2021/07/21 08:54:34;;;;;;;;;;;;;;;;;;10320556;28;20287;-65
2021/07/21 08:59:31;;;;;;;;;;;;;;;;;;10321426;28;19948;-66
2021/07/21 09:04:28;;;;;;;;;;;;;;;;;;10332243;28;20433;-66
2021/07/21 09:09:25;;;;;;;;;;;;;;;;;;10346451;28;19916;-63
2021/07/21 09:14:23;;;;;;;;;;;;;;;;;;10326939;28;19924;-65
2021/07/21 09:19:20;;;;;;;;;;;;;;;;;;10328309;28;20258;-62
2021/07/21 09:24:17;;;;;;;;;;;;;;;;;;10325551;28;19924;-62
2021/07/21 09:29:15;;;;;;;;;;;;;;;;;;10345612;28;19920;-62
2021/07/21 09:34:12;;;;;;;;;;;;;;;;;;10326044;28;20363;-64
2021/07/21 09:39:11;;;;;;;;;;;;;;;;;;10352504;28;19942;-62
2021/07/21 09:44:08;;;;;;;;;;;;;;;;;;10347986;28;19952;-62
2021/07/21 09:49:05;;;;;;;;;;;;;;;;;;10310100;28;19917;-64
2021/07/21 09:54:03;;;;;;;;;;;;;;;;;;10340044;28;19925;-66
2021/07/21 09:59:00;;;;;;;;;;;;;;;;;;10318857;28;19928;-62
2021/07/21 10:03:57;;;;;;;;;;;;;;;;;;10330561;28;20036;-65
2021/07/21 10:08:54;;;;;;;;;;;;;;;;;;10324766;28;20020;-63
2021/07/21 10:13:52;;;;;;;;;;;;;;;;;;10312825;28;20282;-63
2021/07/21 10:18:49;;;;;;;;;;;;;;;;;;10322750;28;19960;-67
2021/07/21 10:23:46;;;;;;;;;;;;;;;;;;10307418;28;20185;-65
2021/07/21 10:28:44;;;;;;;;;;;;;;;;;;10334881;28;20243;-65
2021/07/21 10:33:41;;;;;;;;;;;;;;;;;;10321303;28;19962;-65
2021/07/21 10:38:38;;;;;;;;;;;;;;;;;;10325419;28;19924;-64
2021/07/21 10:43:35;;;;;;;;;;;;;;;;;;10323293;28;20062;-64
2021/07/21 10:48:35;;;;;;;;;;;;;;;;;;10327054;28;19925;-65
2021/07/21 11:03:52;;;;;;;;;;;;;;;;;;10323891;28;19936;-63
2021/07/21 11:08:49;;;;;;;;;;;;;;;;;;10350843;28;20011;-65
2021/07/21 11:13:46;;;;;;;;;;;;;;;;;;10308930;28;19921;-64
2021/07/21 11:18:44;;;;;;;;;;;;;;;;;;10325298;28;19924;-64
2021/07/21 11:23:41;;;;;;;;;;;;;;;;;;10320718;28;19928;-65
2021/07/21 11:28:38;;;;;;;;;;;;;;;;;;10321429;28;19917;-64
2021/07/21 11:33:36;;;;;;;;;;;;;;;;;;10324310;28;19917;-64
2021/07/21 11:38:33;;;;;;;;;;;;;;;;;;10326508;28;20860;-64
2021/07/21 11:43:30;;;;;;;;;;;;;;;;;;10317446;28;20240;-65
2021/07/21 11:48:28;;;;;;;;;;;;;;;;;;10336384;28;19929;-65
2021/07/21 11:53:25;;;;;;;;;;;;;;;;;;10330265;28;20027;-66
2021/07/21 11:58:23;;;;;;;;;;;;;;;;;;10344955;28;19924;-64
2021/07/21 12:03:21;;;;;;;;;;;;;;;;;;10338938;28;19921;-64
2021/07/21 12:08:18;;;;;;;;;;;;;;;;;;10334896;28;20374;-65
2021/07/21 12:13:19;;;;;;;;;;;;;;;;;;10336622;28;20811;-65
2021/07/21 12:18:17;;;;;;;;;;;;;;;;;;10353125;28;20038;-66
2021/07/21 12:23:14;;;;;;;;;;;;;;;;;;10328804;28;21163;-64
2021/07/21 12:28:11;;;;;;;;;;;;;;;;;;10335830;28;20409;-65
2021/07/21 12:33:08;;;;;;;;;;;;;;;;;;10326228;28;19917;-64
2021/07/21 12:38:06;;;;;;;;;;;;;;;;;;10337601;28;19921;-65
2021/07/21 12:43:03;;;;;;;;;;;;;;;;;;10346593;28;19928;-64
2021/07/21 12:48:00;;;;;;;;;;;;;;;;;;10329807;28;19921;-63
2021/07/21 12:52:58;;;;;;;;;;;;;;;;;;10324271;28;19923;-66
2021/07/21 12:57:55;;;;;;;;;;;;;;;;;;10333074;28;19921;-67
2021/07/21 13:02:52;;;;;;;;;;;;;;;;;;10322868;28;19921;-66
2021/07/21 13:07:49;;;;;;;;;;;;;;;;;;10315143;28;19909;-67
2021/07/21 13:12:47;;;;;;;;;;;;;;;;;;10329353;28;19913;-66
2021/07/21 13:17:44;;;;;;;;;;;;;;;;;;10345774;28;19956;-66
2021/07/21 13:22:41;;;;;;;;;;;;;;;;;;10327584;28;19935;-65
2021/07/21 13:27:39;;;;;;;;;;;;;;;;;;10331187;28;20083;-66
2021/07/21 13:32:36;;;;;;;;;;;;;;;;;;10329997;28;19932;-65
2021/07/21 13:37:33;;;;;;;;;;;;;;;;;;10327699;28;19932;-66
2021/07/21 13:42:31;;;;;;;;;;;;;;;;;;10339141;28;19921;-66
2021/07/21 13:47:28;;;;;;;;;;;;;;;;;;10329573;28;20399;-67
2021/07/21 13:52:25;;;;;;;;;;;;;;;;;;10312877;28;19917;-66
2021/07/21 13:57:24;;;;;;;;;;;;;;;;;;10326822;28;19916;-66
2021/07/21 14:02:22;;;;;;;;;;;;;;;;;;10327530;28;20370;-67
2021/07/21 14:07:19;;;;;;;;;;;;;;;;;;10323250;28;19939;-65
2021/07/21 14:12:17;;;;;;;;;;;;;;;;;;10323761;28;19928;-64
2021/07/21 14:17:14;;;;;;;;;;;;;;;;;;10338381;28;19917;-65
2021/07/21 14:22:11;;;;;;;;;;;;;;;;;;10319033;28;19983;-65
2021/07/21 14:27:08;;;;;;;;;;;;;;;;;;10307104;28;19956;-65
2021/07/21 14:32:06;;;;;;;;;;;;;;;;;;10343704;28;20306;-67
2021/07/21 14:37:05;;;;;;;;;;;;;;;;;;10324833;28;20247;-65
2021/07/21 14:42:02;;;;;;;;;;;;;;;;;;10322897;28;19920;-65
2021/07/21 14:46:59;;;;;;;;;;;;;;;;;;10320730;28;19925;-65
2021/07/21 14:51:57;;;;;;;;;;;;;;;;;;10319404;28;19967;-64
2021/07/21 14:56:54;;;;;;;;;;;;;;;;;;10322534;28;19921;-64
2021/07/21 15:01:51;;;;;;;;;;;;;;;;;;10320056;28;20425;-63
2021/07/21 15:06:48;;;;;;;;;;;;;;;;;;10317446;28;20396;-64
2021/07/21 15:11:46;;;;;;;;;;;;;;;;;;10292007;28;20040;-64
2021/07/21 15:16:43;;;;;;;;;;;;;;;;;;10316667;28;19917;-65
2021/07/21 15:21:41;;;;;;;;;;;;;;;;;;10312025;28;20364;-65
2021/07/21 15:26:38;;;;;;;;;;;;;;;;;;10320226;28;19917;-63
2021/07/21 15:31:35;;;;;;;;;;;;;;;;;;10334358;28;19979;-64
2021/07/21 15:36:32;;;;;;;;;;;;;;;;;;10318355;28;19935;-63
2021/07/21 15:41:30;;;;;;;;;;;;;;;;;;10321152;28;19916;-65
2021/07/21 15:46:27;;;;;;;;;;;;;;;;;;10329501;28;20353;-63
2021/07/21 15:51:24;;;;;;;;;;;;;;;;;;10320869;28;20033;-66
2021/07/21 15:56:21;;;;;;;;;;;;;;;;;;10344262;28;19916;-65
2021/07/21 16:01:19;;;;;;;;;;;;;;;;;;10323541;28;19933;-66
2021/07/21 16:06:17;;;;;;;;;;;;;;;;;;10318311;28;19933;-66
2021/07/21 16:11:14;;;;;;;;;;;;;;;;;;10323609;28;20374;-66
2021/07/21 16:16:11;;;;;;;;;;;;;;;;;;10322894;28;19917;-64
2021/07/21 16:21:08;;;;;;;;;;;;;;;;;;10314324;28;19979;-66
2021/07/21 16:26:06;;;;;;;;;;;;;;;;;;10336326;28;19925;-64
2021/07/21 16:31:03;;;;;;;;;;;;;;;;;;10309347;28;19925;-63
2021/07/21 16:36:00;;;;;;;;;;;;;;;;;;10331305;28;19927;-63
2021/07/21 16:40:58;;;;;;;;;;;;;;;;;;10328345;28;19962;-68
2021/07/21 16:45:55;;;;;;;;;;;;;;;;;;10343392;28;20011;-65
2021/07/21 16:50:52;;;;;;;;;;;;;;;;;;10325012;28;20026;-64
2021/07/21 16:55:50;;;;;;;;;;;;;;;;;;10328588;28;19917;-64
2021/07/21 17:00:47;;;;;;;;;;;;;;;;;;10331462;28;20374;-63
2021/07/21 17:05:45;;;;;;;;;;;;;;;;;;10336656;28;19969;-64
2021/07/21 17:10:42;;;;;;;;;;;;;;;;;;10324641;28;19917;-62
2021/07/21 17:15:39;;;;;;;;;;;;;;;;;;10315710;28;19917;-62
2021/07/21 17:20:38;;;;;;;;;;;;;;;;;;10327371;28;19917;-62
2021/07/21 17:25:36;;;;;;;;;;;;;;;;;;10323900;28;20058;-63
2021/07/21 17:30:33;;;;;;;;;;;;;;;;;;10322201;28;20059;-62
2021/07/21 17:35:31;;;;;;;;;;;;;;;;;;10333902;28;19920;-62
2021/07/21 17:40:28;;;;;;;;;;;;;;;;;;10326621;28;20472;-62
2021/07/21 17:45:27;;;;;;;;;;;;;;;;;;10328139;28;19952;-61
2021/07/21 17:50:24;;;;;;;;;;;;;;;;;;10332251;28;20007;-61
2021/07/21 17:55:22;;;;;;;;;;;;;;;;;;10321302;28;20024;-60
2021/07/21 18:00:19;;;;;;;;;;;;;;;;;;10338425;28;20328;-61
2021/07/21 18:05:16;;;;;;;;;;;;;;;;;;10323391;28;19975;-62
2021/07/21 18:10:14;;;;;;;;;;;;;;;;;;10312702;28;19917;-64
2021/07/21 18:15:12;;;;;;;;;;;;;;;;;;10324924;28;19917;-62
2021/07/21 18:20:09;;;;;;;;;;;;;;;;;;10330382;28;19924;-62
2021/07/21 18:25:06;;;;;;;;;;;;;;;;;;10318496;28;19925;-63
2021/07/21 18:30:04;;;;;;;;;;;;;;;;;;10328385;28;20390;-62
2021/07/21 18:35:01;;;;;;;;;;;;;;;;;;10332115;28;19920;-61
2021/07/21 18:39:58;;;;;;;;;;;;;;;;;;10328851;28;19932;-61
2021/07/21 18:44:55;;;;;;;;;;;;;;;;;;10326555;28;19935;-61
2021/07/21 18:49:54;;;;;;;;;;;;;;;;;;10333739;28;21057;-61
2021/07/21 18:54:51;;;;;;;;;;;;;;;;;;10336122;28;19917;-61
2021/07/21 18:59:51;;;;;;;;;;;;;;;;;;10323307;28;20267;-63
2021/07/21 19:04:48;;;;;;;;;;;;;;;;;;10324915;28;19932;-61
2021/07/21 19:09:45;;;;;;;;;;;;;;;;;;10325938;28;20199;-63
2021/07/21 19:14:43;;;;;;;;;;;;;;;;;;10325221;28;20012;-65
2021/07/21 19:19:40;;;;;;;;;;;;;;;;;;10331777;28;20233;-62
2021/07/21 19:24:37;;;;;;;;;;;;;;;;;;10326940;28;20621;-62
2021/07/21 19:29:34;;;;;;;;;;;;;;;;;;10321694;28;20020;-64
2021/07/21 19:34:32;;;;;;;;;;;;;;;;;;10324654;28;19963;-62
2021/07/21 19:39:29;;;;;;;;;;;;;;;;;;10326262;28;19929;-61
2021/07/21 19:44:26;;;;;;;;;;;;;;;;;;10321956;28;20300;-62
2021/07/21 19:49:24;;;;;;;;;;;;;;;;;;10320439;28;19923;-61
2021/07/21 19:54:21;;;;;;;;;;;;;;;;;;10319493;28;19916;-66
2021/07/21 19:59:18;;;;;;;;;;;;;;;;;;10326657;28;19917;-60
2021/07/21 20:04:16;;;;;;;;;;;;;;;;;;10325747;28;19974;-60
2021/07/21 20:09:13;;;;;;;;;;;;;;;;;;10323633;28;20007;-62
2021/07/21 20:14:11;;;;;;;;;;;;;;;;;;10328618;28;19916;-63
2021/07/21 20:19:08;;;;;;;;;;;;;;;;;;10321330;28;19928;-63
2021/07/21 20:24:06;;;;;;;;;;;;;;;;;;10321238;28;20310;-61
2021/07/21 20:29:03;;;;;;;;;;;;;;;;;;10328863;28;20053;-61
2021/07/21 20:34:01;;;;;;;;;;;;;;;;;;10324993;28;19920;-62
2021/07/21 20:38:58;;;;;;;;;;;;;;;;;;10337729;28;20019;-62
2021/07/21 20:43:55;;;;;;;;;;;;;;;;;;10321645;28;19920;-62
2021/07/21 20:48:52;;;;;;;;;;;;;;;;;;10327563;28;20011;-63
2021/07/21 20:53:50;;;;;;;;;;;;;;;;;;10337644;28;19917;-62
2021/07/21 20:58:47;;;;;;;;;;;;;;;;;;10327987;28;19994;-61
2021/07/21 21:03:44;;;;;;;;;;;;;;;;;;10325292;28;19943;-62
2021/07/21 21:08:42;;;;;;;;;;;;;;;;;;10318914;28;20452;-62
2021/07/21 21:13:39;;;;;;;;;;;;;;;;;;10336394;28;20387;-61
2021/07/21 21:18:36;;;;;;;;;;;;;;;;;;10322885;28;19917;-60
2021/07/21 21:23:34;;;;;;;;;;;;;;;;;;10308631;28;19921;-61
2021/07/21 21:28:31;;;;;;;;;;;;;;;;;;10338224;28;19923;-63
2021/07/21 21:33:28;;;;;;;;;;;;;;;;;;10327069;28;19986;-61
2021/07/21 21:38:26;;;;;;;;;;;;;;;;;;10324874;28;19971;-62
2021/07/21 21:43:23;;;;;;;;;;;;;;;;;;10326188;28;19924;-61
2021/07/21 21:48:20;;;;;;;;;;;;;;;;;;10333905;28;20377;-62
2021/07/21 21:53:17;;;;;;;;;;;;;;;;;;10330386;28;20004;-59
2021/07/21 21:58:15;;;;;;;;;;;;;;;;;;10324554;28;19913;-61
2021/07/21 22:03:13;;;;;;;;;;;;;;;;;;10303724;28;20024;-61
2021/07/21 22:08:11;;;;;;;;;;;;;;;;;;10329109;28;19936;-62
2021/07/21 22:13:12;;;;;;;;;;;;;;;;;;10332948;28;19916;-63
2021/07/21 22:18:10;;;;;;;;;;;;;;;;;;10335811;28;20350;-63
2021/07/21 22:23:07;;;;;;;;;;;;;;;;;;10322331;28;19917;-61
2021/07/21 22:28:04;;;;;;;;;;;;;;;;;;10323289;28;20084;-63
2021/07/21 22:33:02;;;;;;;;;;;;;;;;;;10332141;28;20007;-65
2021/07/21 22:38:00;;;;;;;;;;;;;;;;;;10328685;28;20011;-63
2021/07/21 22:42:57;;;;;;;;;;;;;;;;;;10320173;28;20004;-62
2021/07/21 22:47:55;;;;;;;;;;;;;;;;;;10318370;28;19928;-63
2021/07/21 22:52:54;;;;;;;;;;;;;;;;;;10324568;28;20349;-62
2021/07/21 22:57:51;;;;;;;;;;;;;;;;;;10314851;28;19917;-65
2021/07/21 23:02:49;;;;;;;;;;;;;;;;;;10326848;28;19921;-66
2021/07/21 23:07:47;;;;;;;;;;;;;;;;;;10312276;28;20252;-64
2021/07/21 23:12:44;;;;;;;;;;;;;;;;;;10321574;28;19916;-64
2021/07/21 23:17:41;;;;;;;;;;;;;;;;;;10320154;28;19916;-61
2021/07/21 23:22:39;;;;;;;;;;;;;;;;;;10319966;28;20444;-63
2021/07/21 23:27:39;;;;;;;;;;;;;;;;;;10317722;28;19921;-62
2021/07/21 23:32:36;;;;;;;;;;;;;;;;;;10327837;28;20327;-62
2021/07/21 23:37:33;;;;;;;;;;;;;;;;;;10306808;28;19925;-63
2021/07/21 23:42:31;;;;;;;;;;;;;;;;;;10329088;28;19921;-60
2021/07/21 23:47:31;;;;;;;;;;;;;;;;;;10318409;28;19920;-61
2021/07/21 23:52:28;;;;;;;;;;;;;;;;;;10318306;28;20957;-60
2021/07/21 23:57:25;;;;;;;;;;;;;;;;;;10309085;28;19960;-63
